Archival Weather

Annapolis United States Naval

Annapolis United States Naval, Maryland (KNAK)

Report from: Tuesday, June 6, 2023 9:54 AM UTC
Current time: Tuesday, July 16, 2024 8:39 AM UTC

Current weather – Weather history – Daily summaries
Weather forecast

Temperature15.0°C (59.0°F)
Dew point8.3°C (46.9°F)
Winds 3 kts (1.5 m/s, 3.5 mph) West (280°)
Visibility10 mi. (16.1 km)
Clouds Sky clear
Altimeter29.84 in.Hg (1010 mB)
Relative humidity64 %
Density altitude247 ft. (75 m)
Sea-level pressure101.1 kPa (1011 mB, 29.84 in.Hg)
Remarks Fully automated report
System requires maintenance
Automated weather observing station with precipitation discriminator
Flight conditions Visual Meteorological Conditions
Raw dataKNAK 060954Z AUTO 28003KT 10SM CLR 15/08 A2984 RMK AO2 SLP106 T01500083 $
An error has occurred. This application may no longer respond until reloaded. Reload 🗙